Time;durP1;ratioP1;P1;durP2;ratioP2;P2;SDS_P1;SDS_P2;PMS_P1;PMS_P2;Temp;Humidity;BMP_temperature;BMP_pressure;BME280_temperature;BME280_humidity;BME280_pressure;Samples;Min_cycle;Max_cycle;Signal;HPM_P1;HPM_P2
2022/09/29 00:01:30;;;;;;;1.92;0.47;;;;;;;13.78;100.00;98988.75;5025007;28;20036;-84
2022/09/29 00:03:55;;;;;;;6.85;0.60;;;;;;;13.80;100.00;98991.16;5032257;28;20828;-87
2022/09/29 00:06:21;;;;;;;1.85;0.50;;;;;;;13.80;100.00;98984.09;5034679;28;20118;-85
2022/09/29 00:08:47;;;;;;;3.35;0.50;;;;;;;13.80;100.00;98996.41;5029070;28;20295;-84
2022/09/29 00:11:16;;;;;;;2.70;0.35;;;;;;;13.79;100.00;98989.53;5029636;28;20030;-86
2022/09/29 00:13:42;;;;;;;4.03;0.47;;;;;;;13.80;100.00;98980.69;5019067;28;20021;-84
2022/09/29 00:16:07;;;;;;;1.77;0.30;;;;;;;13.79;100.00;98979.06;5022764;28;20037;-88
2022/09/29 00:18:33;;;;;;;3.65;0.30;;;;;;;13.78;100.00;98972.22;5029831;28;20025;-86
2022/09/29 00:21:10;;;;;;;4.97;0.38;;;;;;;13.77;100.00;98973.22;5014843;28;20029;-89
2022/09/29 00:23:36;;;;;;;2.80;0.38;;;;;;;13.82;100.00;98978.69;5031843;28;20057;-87
2022/09/29 00:26:05;;;;;;;3.85;0.32;;;;;;;13.83;100.00;98975.06;5040443;28;20449;-87
2022/09/29 00:28:32;;;;;;;3.42;0.32;;;;;;;13.77;100.00;98971.41;5042112;28;20067;-85
2022/09/29 00:31:00;;;;;;;2.72;0.30;;;;;;;13.77;100.00;98955.72;5043181;28;20033;-85
2022/09/29 00:33:29;;;;;;;2.10;0.30;;;;;;;13.78;100.00;98956.53;5017605;28;20480;-86
2022/09/29 00:36:06;;;;;;;6.85;0.73;;;;;;;13.72;100.00;98962.56;5035527;28;20028;-84
2022/09/29 00:38:33;;;;;;;2.72;0.60;;;;;;;13.73;100.00;98958.94;5039383;28;20559;-88
2022/09/29 00:40:59;;;;;;;4.60;0.40;;;;;;;13.67;100.00;98965.81;5035592;28;20634;-87
2022/09/29 00:43:47;;;;;;;2.38;0.30;;;;;;;13.55;100.00;98957.75;5044235;28;20048;-85
2022/09/29 00:46:15;;;;;;;3.67;0.38;;;;;;;13.59;100.00;98960.75;5025535;28;20440;-86
2022/09/29 00:48:42;;;;;;;1.20;0.38;;;;;;;13.60;100.00;98965.78;5037691;28;20037;-85
2022/09/29 00:51:08;;;;;;;3.83;0.32;;;;;;;13.56;100.00;98964.59;5017932;28;20033;-88
2022/09/29 00:53:34;;;;;;;4.43;0.50;;;;;;;13.58;100.00;98967.81;5019081;28;20037;-90
2022/09/29 00:56:07;;;;;;;3.25;0.40;;;;;;;13.63;100.00;98974.25;5029425;28;20048;-87
2022/09/29 00:58:39;;;;;;;3.33;0.35;;;;;;;13.71;100.00;98972.22;5047945;28;20029;-89
2022/09/29 01:01:05;;;;;;;3.47;0.20;;;;;;;13.83;100.00;98970.63;5047796;28;20057;-87
2022/09/29 01:03:37;;;;;;;2.05;0.28;;;;;;;13.94;100.00;98974.44;5026843;28;20063;-86
2022/09/29 01:06:13;;;;;;;1.67;0.30;;;;;;;13.93;100.00;98978.06;5027767;28;20049;-88
2022/09/29 01:08:50;;;;;;;4.93;0.40;;;;;;;14.01;100.00;98972.63;5028532;28;20602;-87
2022/09/29 01:11:19;;;;;;;3.30;0.30;;;;;;;14.00;100.00;98965.78;5041346;28;20393;-86
2022/09/29 01:13:46;;;;;;;4.18;0.25;;;;;;;14.00;100.00;98964.97;5039180;28;20040;-89
2022/09/29 01:16:11;;;;;;;2.35;0.20;;;;;;;13.98;100.00;98957.34;5029062;28;20025;-89
2022/09/29 01:18:37;;;;;;;1.10;0.28;;;;;;;13.98;100.00;98957.34;5015649;28;20029;-88
2022/09/29 01:21:23;;;;;;;2.60;0.28;;;;;;;14.01;100.00;98956.13;5025835;28;20439;-85
2022/09/29 01:24:10;;;;;;;1.53;0.20;;;;;;;14.02;100.00;98960.34;5026416;28;20091;-89
2022/09/29 01:27:19;;;;;;;3.28;0.30;;;;;;;14.02;100.00;98950.69;5022995;28;20122;-89
2022/09/29 01:30:22;;;;;;;4.85;0.38;;;;;;;13.96;100.00;98954.09;4984637;28;20431;-85
2022/09/29 01:33:12;;;;;;;3.15;0.40;;;;;;;13.94;100.00;98956.13;5003692;28;20542;-90
2022/09/29 01:35:46;;;;;;;4.03;0.30;;;;;;;13.92;100.00;98960.75;5033235;28;20112;-90
2022/09/29 01:38:24;;;;;;;3.88;0.30;;;;;;;13.95;100.00;98961.16;5019396;28;20370;-89
2022/09/29 01:41:15;;;;;;;2.30;0.40;;;;;;;13.91;100.00;98949.47;5015780;28;20454;-86
2022/09/29 01:44:01;;;;;;;6.65;0.30;;;;;;;13.95;100.00;98949.88;5031389;28;20083;-89
2022/09/29 01:46:42;;;;;;;2.58;0.30;;;;;;;13.97;100.00;98950.47;5023843;28;20032;-88
2022/09/29 01:49:08;;;;;;;2.75;0.20;;;;;;;13.99;100.00;98950.28;5030765;28;20045;-89
2022/09/29 01:51:48;;;;;;;3.90;0.63;;;;;;;14.01;100.00;98954.31;5041478;28;20029;-90
2022/09/29 01:54:37;;;;;;;2.30;0.30;;;;;;;13.99;100.00;98952.91;5037563;28;20036;-87
2022/09/29 01:57:11;;;;;;;3.03;0.30;;;;;;;13.92;100.00;98960.75;5032699;28;20582;-88
2022/09/29 01:59:57;;;;;;;2.00;0.55;;;;;;;13.87;100.00;98958.75;5042933;28;20038;-90
2022/09/29 02:02:37;;;;;;;2.00;0.40;;;;;;;13.82;100.00;98950.69;5028309;28;20496;-84
2022/09/29 02:05:11;;;;;;;2.45;0.13;;;;;;;13.95;100.00;98945.44;5049488;28;20117;-88
2022/09/29 02:07:41;;;;;;;4.43;0.38;;;;;;;13.98;100.00;98954.72;5030574;28;20043;-86
2022/09/29 02:10:32;;;;;;;1.15;0.10;;;;;;;13.95;100.00;98944.66;5033522;28;20146;-88
2022/09/29 02:13:01;;;;;;;3.90;0.30;;;;;;;13.97;100.00;98945.25;5032159;28;20061;-88
2022/09/29 02:15:31;;;;;;;3.50;0.20;;;;;;;13.97;100.00;98944.44;5021177;28;20052;-90
2022/09/29 02:18:01;;;;;;;1.40;0.17;;;;;;;13.95;100.00;98942.03;5042560;28;20018;-89
2022/09/29 02:20:27;;;;;;;2.75;0.20;;;;;;;13.93;100.00;98941.41;5039844;28;20041;-92
2022/09/29 02:22:54;;;;;;;4.43;0.38;;;;;;;13.94;100.00;98945.66;5021986;28;20029;-87
2022/09/29 02:25:21;;;;;;;2.92;0.40;;;;;;;13.95;100.00;98942.03;5037684;28;20078;-89
2022/09/29 02:27:49;;;;;;;1.35;0.30;;;;;;;13.96;100.00;98943.63;5035438;28;20025;-85
2022/09/29 02:30:14;;;;;;;2.10;0.40;;;;;;;13.98;100.00;98943.44;5020618;28;20052;-85
2022/09/29 02:32:40;;;;;;;23.90;1.10;;;;;;;14.01;100.00;98943.03;5028211;28;20071;-90
2022/09/29 02:35:08;;;;;;;4.53;0.30;;;;;;;14.03;100.00;98948.88;5024407;28;20561;-86
2022/09/29 02:37:39;;;;;;;4.05;0.30;;;;;;;14.00;100.00;98950.06;5022940;28;20029;-90
2022/09/29 02:40:24;;;;;;;1.80;0.30;;;;;;;14.00;100.00;98955.31;5024473;28;20475;-89
2022/09/29 02:43:30;;;;;;;3.90;0.20;;;;;;;13.99;100.00;98945.84;5029001;28;20052;-87
2022/09/29 02:46:25;;;;;;;1.45;0.28;;;;;;;14.00;100.00;98944.84;4936659;28;20200;-88
2022/09/29 02:49:21;;;;;;;1.65;0.20;;;;;;;14.03;100.00;98944.44;4889011;29;20040;-90
2022/09/29 02:52:01;;;;;;;5.28;0.30;;;;;;;14.06;100.00;98949.28;4885301;29;20032;-88
2022/09/29 02:54:59;;;;;;;2.50;0.38;;;;;;;14.03;100.00;98948.88;4887239;29;20044;-86
2022/09/29 02:57:43;;;;;;;1.42;0.20;;;;;;;13.99;100.00;98940.63;4884945;29;20083;-87
2022/09/29 03:00:13;;;;;;;1.00;0.20;;;;;;;14.02;100.00;98948.06;4874086;29;20056;-85
2022/09/29 03:02:40;;;;;;;1.08;0.20;;;;;;;14.02;100.00;98942.81;4892829;29;20590;-86
2022/09/29 03:05:12;;;;;;;2.28;0.20;;;;;;;14.00;100.00;98939.59;4892704;29;20052;-85
2022/09/29 03:07:38;;;;;;;4.38;0.43;;;;;;;14.01;100.00;98940.41;4900816;29;20092;-86
2022/09/29 03:10:05;;;;;;;1.10;0.20;;;;;;;14.03;100.00;98954.09;4887548;29;20182;-86
2022/09/29 03:12:30;;;;;;;2.28;0.30;;;;;;;14.02;100.00;98952.50;4894479;29;20059;-90
2022/09/29 03:14:56;;;;;;;3.33;0.30;;;;;;;14.00;100.00;98954.50;4889904;29;20408;-91
2022/09/29 03:17:21;;;;;;;6.65;0.30;;;;;;;13.96;100.00;98954.09;4894406;29;20116;-88
2022/09/29 03:19:47;;;;;;;4.75;0.50;;;;;;;13.93;100.00;98955.31;4889604;29;20134;-89
2022/09/29 03:22:13;;;;;;;3.40;0.45;;;;;;;13.95;100.00;98961.16;4883535;29;20067;-86
2022/09/29 03:24:38;;;;;;;8.15;0.45;;;;;;;14.00;100.00;98954.50;4926819;29;20041;-88
2022/09/29 03:27:05;;;;;;;1.50;0.50;;;;;;;14.02;100.00;98940.22;5022766;28;20564;-87
2022/09/29 03:29:42;;;;;;;2.78;0.40;;;;;;;14.00;100.00;98938.78;5022900;28;20025;-85
2022/09/29 03:32:08;;;;;;;5.15;0.57;;;;;;;13.95;100.00;98937.59;5036898;28;20029;-85
2022/09/29 03:34:34;;;;;;;2.40;0.20;;;;;;;13.94;100.00;98940.41;5047837;28;20028;-87
2022/09/29 03:37:00;;;;;;;2.35;0.50;;;;;;;13.94;100.00;98938.59;5021617;28;20476;-87
2022/09/29 03:39:26;;;;;;;2.83;0.32;;;;;;;13.95;100.00;98931.56;5019452;28;20028;-86
2022/09/29 03:41:52;;;;;;;3.28;0.35;;;;;;;13.95;100.00;98937.59;5029611;28;20049;-88
2022/09/29 03:44:17;;;;;;;3.05;0.50;;;;;;;13.95;100.00;98937.59;5024493;28;20033;-88
2022/09/29 03:46:43;;;;;;;0.80;0.20;;;;;;;13.95;100.00;98934.16;5034014;28;20026;-87
2022/09/29 03:49:10;;;;;;;1.60;0.40;;;;;;;13.96;100.00;98933.16;5035589;28;20041;-87
2022/09/29 03:51:36;;;;;;;2.88;0.40;;;;;;;13.97;100.00;98940.00;5023379;28;20041;-87
2022/09/29 03:54:02;;;;;;;4.75;0.40;;;;;;;13.95;100.00;98939.41;5018381;28;20397;-89
2022/09/29 03:56:27;;;;;;;2.88;0.30;;;;;;;13.89;100.00;98927.94;5011050;28;20037;-87
2022/09/29 03:58:53;;;;;;;4.38;0.43;;;;;;;13.88;100.00;98930.75;5026148;28;20017;-87
2022/09/29 04:01:18;;;;;;;4.95;0.60;;;;;;;13.89;100.00;98927.13;5022140;28;20030;-87
2022/09/29 04:03:44;;;;;;;5.50;0.40;;;;;;;13.90;100.00;98932.16;5013551;28;20025;-88
2022/09/29 04:06:10;;;;;;;2.33;0.22;;;;;;;13.88;100.00;98931.56;5039221;28;20028;-88
2022/09/29 04:08:36;;;;;;;1.77;0.30;;;;;;;13.84;100.00;98919.06;5034131;28;20033;-86
2022/09/29 04:11:02;;;;;;;4.90;0.30;;;;;;;13.86;100.00;98917.06;5038471;28;21206;-90
2022/09/29 04:13:27;;;;;;;2.08;0.35;;;;;;;13.83;100.00;98917.47;5018932;28;20029;-90
2022/09/29 04:16:00;;;;;;;3.58;0.40;;;;;;;13.81;100.00;98914.25;5027175;28;20495;-86
2022/09/29 04:18:25;;;;;;;6.15;0.40;;;;;;;13.80;100.00;98912.63;5013191;28;20393;-89
2022/09/29 04:20:52;;;;;;;4.18;0.40;;;;;;;13.82;100.00;98926.31;5018671;28;20111;-90
2022/09/29 04:23:17;;;;;;;2.83;0.35;;;;;;;13.84;100.00;98921.69;5016465;28;20040;-86
2022/09/29 04:25:44;;;;;;;2.38;0.30;;;;;;;13.89;100.00;98929.75;5030760;28;20335;-91
2022/09/29 04:28:15;;;;;;;4.85;0.40;;;;;;;13.85;100.00;98924.09;5030953;28;20359;-88
2022/09/29 04:30:40;;;;;;;2.47;0.40;;;;;;;13.84;100.00;98925.09;5024939;28;20033;-87
2022/09/29 04:33:06;;;;;;;1.95;0.68;;;;;;;13.87;100.00;98935.19;5028984;28;20477;-87
2022/09/29 04:35:31;;;;;;;1.98;0.25;;;;;;;13.90;100.00;98934.78;5038622;28;20021;-86
2022/09/29 04:37:58;;;;;;;3.28;0.55;;;;;;;13.93;100.00;98933.56;5045134;28;20539;-88
2022/09/29 04:40:24;;;;;;;3.33;0.30;;;;;;;13.98;100.00;98946.06;5017415;28;20072;-88
2022/09/29 04:42:50;;;;;;;5.25;0.35;;;;;;;14.01;100.00;98949.06;5021544;28;20056;-87
2022/09/29 04:45:16;;;;;;;4.00;0.30;;;;;;;14.00;100.00;98955.31;5019978;28;20029;-89
2022/09/29 04:47:41;;;;;;;4.65;0.50;;;;;;;13.96;100.00;98951.50;5026780;28;20024;-85
2022/09/29 04:50:08;;;;;;;1.98;0.60;;;;;;;13.96;100.00;98948.88;5024508;28;20063;-90
2022/09/29 04:52:40;;;;;;;5.63;0.60;;;;;;;13.95;100.00;98945.44;5039572;28;20025;-88
2022/09/29 04:55:10;;;;;;;5.15;1.20;;;;;;;13.97;100.00;98945.25;5053666;28;20140;-89
2022/09/29 04:57:36;;;;;;;7.93;1.70;;;;;;;14.00;100.00;98954.50;5027740;28;20021;-88
2022/09/29 05:00:03;;;;;;;6.93;0.80;;;;;;;14.02;100.00;98950.69;5028710;28;20067;-89
2022/09/29 05:02:28;;;;;;;1.90;0.47;;;;;;;14.03;100.00;98959.34;5034656;28;20037;-84
2022/09/29 05:04:54;;;;;;;4.60;0.40;;;;;;;14.02;100.00;98947.25;5013659;28;20543;-84
2022/09/29 05:07:21;;;;;;;6.55;1.30;;;;;;;14.03;100.00;98954.91;5049987;28;20120;-89
2022/09/29 05:09:47;;;;;;;4.10;0.57;;;;;;;14.06;100.00;98954.50;5037431;28;20056;-84
2022/09/29 05:12:13;;;;;;;3.85;0.68;;;;;;;14.06;100.00;98957.13;5016034;28;20473;-86
2022/09/29 05:14:38;;;;;;;3.03;0.68;;;;;;;14.07;100.00;98958.75;5033260;28;20025;-84
2022/09/29 05:17:04;;;;;;;3.20;1.00;;;;;;;14.05;100.00;98958.13;5033084;28;20086;-87
2022/09/29 05:19:31;;;;;;;5.13;0.40;;;;;;;14.03;100.00;98954.91;5049479;28;20028;-87
2022/09/29 05:22:00;;;;;;;4.75;0.70;;;;;;;14.04;100.00;98963.56;5051191;28;20544;-86
2022/09/29 05:24:26;;;;;;;7.60;1.00;;;;;;;14.05;100.00;98971.22;5031224;28;20071;-87
2022/09/29 05:26:52;;;;;;;3.50;1.13;;;;;;;14.06;100.00;98972.84;5013721;28;20116;-85
2022/09/29 05:29:18;;;;;;;2.80;0.60;;;;;;;14.09;100.00;98976.88;5013114;28;20180;-87
2022/09/29 05:31:44;;;;;;;2.35;0.50;;;;;;;14.09;100.00;98979.47;5014162;28;20120;-89
2022/09/29 05:34:10;;;;;;;4.40;0.68;;;;;;;14.09;100.00;98979.47;5013031;28;20185;-89
2022/09/29 05:36:35;;;;;;;3.17;0.63;;;;;;;14.07;100.00;98979.69;5013062;28;20021;-85
2022/09/29 05:39:01;;;;;;;7.07;0.50;;;;;;;14.07;100.00;98979.69;5012666;28;20037;-89
2022/09/29 05:41:26;;;;;;;3.63;0.70;;;;;;;14.06;100.00;98972.03;5031214;28;20033;-87
2022/09/29 05:43:54;;;;;;;2.75;0.65;;;;;;;14.04;100.00;98972.22;5014217;28;20536;-90
2022/09/29 05:46:25;;;;;;;4.25;0.70;;;;;;;14.05;100.00;98973.84;5041211;28;20045;-88
2022/09/29 05:48:54;;;;;;;2.28;0.60;;;;;;;14.09;100.00;98977.66;5023395;28;20663;-88
2022/09/29 05:51:27;;;;;;;3.85;0.70;;;;;;;14.11;100.00;98972.22;5048976;28;20544;-88
2022/09/29 05:53:54;;;;;;;2.53;0.50;;;;;;;14.10;100.00;98984.53;5050340;28;20032;-87
2022/09/29 05:56:29;;;;;;;6.78;1.50;;;;;;;14.13;100.00;98975.44;5053082;28;20035;-88
2022/09/29 05:58:55;;;;;;;3.85;0.60;;;;;;;14.12;100.00;98985.13;5040733;28;20112;-84
2022/09/29 06:01:23;;;;;;;4.30;0.60;;;;;;;14.16;100.00;98986.31;5033521;28;20117;-88
2022/09/29 06:04:41;;;;;;;;;;;;;;;;;;;;;
2022/09/29 06:07:50;;;;;;;2.08;0.52;;;;;;;14.20;100.00;98994.56;4968064;28;20467;-84
2022/09/29 06:10:37;;;;;;;6.40;0.60;;;;;;;14.18;100.00;98989.53;4941149;28;20051;-84
2022/09/29 06:13:17;;;;;;;4.22;0.40;;;;;;;14.20;100.00;98989.31;4960671;28;20050;-85
2022/09/29 06:15:43;;;;;;;2.15;0.52;;;;;;;14.24;100.00;98998.38;4944860;29;20061;-83
2022/09/29 06:18:36;;;;;;;2.85;0.73;;;;;;;14.21;100.00;98991.75;4945152;28;20078;-84
2022/09/29 06:21:13;;;;;;;1.75;0.50;;;;;;;14.24;100.00;98993.94;4949112;28;20157;-85
2022/09/29 06:23:39;;;;;;;3.90;0.70;;;;;;;14.29;100.00;99001.19;4950561;28;20038;-85
2022/09/29 06:26:25;;;;;;;2.95;0.55;;;;;;;14.28;100.00;99000.41;4954091;28;20165;-84
2022/09/29 06:31:43;;;;;;;5.65;0.82;;;;;;;14.39;100.00;99008.66;4942143;28;20212;-84
2022/09/29 06:34:09;;;;;;;4.38;0.60;;;;;;;14.44;100.00;99008.88;4944774;28;20121;-84
2022/09/29 06:39:30;;;;;;;2.83;0.80;;;;;;;14.45;100.00;99000.81;4966838;28;20126;-86
2022/09/29 06:41:55;;;;;;;3.10;0.95;;;;;;;14.49;100.00;99006.44;4949633;28;20650;-87
2022/09/29 06:44:24;;;;;;;4.57;0.60;;;;;;;14.54;100.00;99010.06;5010513;28;20068;-85
2022/09/29 06:46:50;;;;;;;1.42;0.40;;;;;;;14.57;100.00;99007.03;5024827;28;20116;-84
2022/09/29 06:49:21;;;;;;;7.65;0.88;;;;;;;14.59;100.00;99012.06;5042681;28;20073;-86
2022/09/29 06:51:46;;;;;;;3.47;0.63;;;;;;;14.62;100.00;99009.03;5032433;28;20061;-81
2022/09/29 06:54:15;;;;;;;1.67;0.57;;;;;;;14.63;100.00;99008.03;5050000;28;20077;-83
2022/09/29 06:56:41;;;;;;;4.65;0.50;;;;;;;14.65;100.00;99013.84;5030824;28;20029;-83
2022/09/29 06:59:07;;;;;;;1.25;0.40;;;;;;;14.69;100.00;99009.81;5047934;28;20112;-80
2022/09/29 07:01:33;;;;;;;1.92;0.50;;;;;;;14.71;100.00;99012.22;5064641;28;20107;-83
2022/09/29 07:04:01;;;;;;;3.20;0.60;;;;;;;14.72;100.00;99022.50;5068050;28;20495;-81
2022/09/29 07:06:28;;;;;;;1.70;0.68;;;;;;;14.71;100.00;99025.34;5027184;28;20514;-81
2022/09/29 07:08:57;;;;;;;2.22;0.40;;;;;;;14.71;100.00;99026.13;5049610;28;20079;-81
2022/09/29 07:11:23;;;;;;;5.50;1.30;;;;;;;14.74;100.00;99019.69;5043446;28;20502;-83
2022/09/29 07:13:52;;;;;;;2.53;0.40;;;;;;;14.76;100.00;99023.72;5041610;28;20025;-81
2022/09/29 07:16:17;;;;;;;5.38;0.50;;;;;;;14.79;100.00;99023.28;5012581;28;21321;-82
2022/09/29 07:18:45;;;;;;;2.72;0.40;;;;;;;14.82;100.00;99029.94;5036351;28;20030;-82
2022/09/29 07:21:15;;;;;;;2.65;0.43;;;;;;;14.82;100.00;99033.38;5029653;28;20272;-81
2022/09/29 07:23:41;;;;;;;3.63;0.82;;;;;;;14.88;100.00;99037.78;5036143;28;20026;-83
2022/09/29 07:26:07;;;;;;;2.95;0.30;;;;;;;14.91;100.00;99036.56;5048883;28;20588;-83
2022/09/29 07:28:33;;;;;;;4.93;0.40;;;;;;;14.98;100.00;99039.19;5032586;28;20147;-81
2022/09/29 07:31:01;;;;;;;2.45;0.43;;;;;;;15.04;100.00;99035.72;5029739;28;20496;-82
2022/09/29 07:33:27;;;;;;;4.10;0.30;;;;;;;15.18;100.00;99038.06;5036010;28;20083;-82
2022/09/29 07:35:53;;;;;;;5.20;0.60;;;;;;;15.32;100.00;99043.25;5031963;28;20033;-82
2022/09/29 07:38:19;;;;;;;3.47;0.40;;;;;;;15.38;100.00;99048.47;5028807;28;20366;-82
2022/09/29 07:40:44;;;;;;;2.05;0.40;;;;;;;15.40;100.00;99041.22;5039205;28;20040;-82
2022/09/29 07:43:10;;;;;;;2.45;0.68;;;;;;;15.42;100.00;99039.19;5035675;28;20053;-83
2022/09/29 07:45:35;;;;;;;5.38;0.50;;;;;;;15.51;100.00;99045.00;5040138;28;20025;-82
2022/09/29 07:48:01;;;;;;;6.97;0.45;;;;;;;15.57;100.00;99050.25;5043013;28;20107;-81
2022/09/29 07:50:26;;;;;;;3.22;0.40;;;;;;;15.58;100.00;99043.16;5034176;28;20036;-82
2022/09/29 07:52:51;;;;;;;8.55;0.35;;;;;;;15.63;100.00;99053.00;5015356;28;20039;-85
2022/09/29 07:55:18;;;;;;;2.15;0.30;;;;;;;15.65;100.00;99049.16;5026823;28;20033;-86
2022/09/29 07:57:47;;;;;;;1.58;0.30;;;;;;;15.75;100.00;99056.56;5025750;28;20055;-83
2022/09/29 08:00:31;;;;;;;1.98;0.30;;;;;;;15.83;100.00;99051.06;5031356;28;20032;-85
2022/09/29 08:03:08;;;;;;;4.18;0.82;;;;;;;15.84;100.00;99052.69;5027091;28;20029;-87
2022/09/29 08:05:37;;;;;;;5.65;0.60;;;;;;;15.84;100.00;99047.44;5025876;28;20029;-88
2022/09/29 08:08:11;;;;;;;2.78;0.40;;;;;;;15.80;100.00;99041.00;5028159;28;20532;-87
2022/09/29 08:10:36;;;;;;;4.07;0.70;;;;;;;15.79;100.00;99055.13;5013402;28;20041;-88
2022/09/29 08:13:05;;;;;;;2.92;0.30;;;;;;;15.86;100.00;99051.47;5029072;28;20082;-85
2022/09/29 08:15:32;;;;;;;7.18;0.30;;;;;;;16.01;100.00;99053.78;5017248;28;20037;-86
2022/09/29 08:17:58;;;;;;;2.58;0.30;;;;;;;16.17;100.00;99050.59;5027455;28;20053;-86
2022/09/29 08:20:25;;;;;;;3.35;0.25;;;;;;;16.25;100.00;99052.97;5025999;28;20067;-87
2022/09/29 08:22:55;;;;;;;3.25;0.30;;;;;;;16.34;100.00;99055.31;5039634;28;20029;-87
2022/09/29 08:25:24;;;;;;;5.45;0.25;;;;;;;16.39;100.00;99051.03;5010207;28;20033;-86
2022/09/29 08:27:53;;;;;;;3.03;0.20;;;;;;;16.52;100.00;99048.28;5022045;28;20329;-86
2022/09/29 08:30:19;;;;;;;1.98;0.20;;;;;;;16.60;100.00;99062.94;5011473;28;20024;-84
2022/09/29 08:32:50;;;;;;;5.78;0.40;;;;;;;16.67;100.00;99052.41;5018796;28;20399;-86
2022/09/29 08:35:19;;;;;;;4.22;0.45;;;;;;;16.79;100.00;99056.72;5042834;28;20111;-86
2022/09/29 08:37:45;;;;;;;5.25;0.35;;;;;;;16.86;100.00;99052.19;5047455;28;20119;-88
2022/09/29 08:40:11;;;;;;;2.55;0.40;;;;;;;16.82;100.00;99064.19;5026888;28;20115;-87
2022/09/29 08:42:54;;;;;;;5.45;0.77;;;;;;;16.79;100.00;99059.34;5005844;28;20054;-87
2022/09/29 08:45:30;;;;;;;2.15;0.43;;;;;;;16.84;100.00;99063.97;5012319;28;20034;-88
2022/09/29 08:48:07;;;;;;;3.67;0.28;;;;;;;16.95;100.00;99070.34;5011890;28;20473;-86
2022/09/29 08:50:49;;;;;;;3.83;0.73;;;;;;;16.93;100.00;99073.19;5004465;28;20060;-87
2022/09/29 08:53:17;;;;;;;2.13;0.32;;;;;;;16.91;100.00;99070.75;5004612;28;20213;-85
2022/09/29 08:55:57;;;;;;;2.22;0.28;;;;;;;16.80;100.00;99074.13;5002288;28;20123;-85
2022/09/29 08:58:22;;;;;;;1.25;0.20;;;;;;;16.79;100.00;99077.78;5002152;28;20515;-86
2022/09/29 09:01:03;;;;;;;4.07;0.45;;;;;;;16.75;100.00;99078.41;5024296;28;20124;-88
2022/09/29 09:03:43;;;;;;;2.33;0.20;;;;;;;16.88;100.00;99076.47;5019768;28;20030;-87
2022/09/29 09:06:26;;;;;;;1.90;0.20;;;;;;;16.81;100.00;99075.72;4992580;28;20034;-86
2022/09/29 09:09:14;;;;;;;4.85;0.40;;;;;;;16.85;100.00;99076.91;5007485;28;20061;-86
2022/09/29 09:12:16;;;;;;;2.15;0.30;;;;;;;16.85;100.00;99069.00;5004677;28;20156;-86
2022/09/29 09:15:06;;;;;;;5.10;0.60;;;;;;;16.98;100.00;99072.53;5006314;28;20038;-87
2022/09/29 09:17:51;;;;;;;8.63;1.17;;;;;;;17.11;100.00;99060.00;5003892;28;20066;-86
2022/09/29 09:20:25;;;;;;;2.67;0.60;;;;;;;17.28;100.00;99060.22;5006996;28;20079;-87
2022/09/29 09:23:00;;;;;;;2.53;0.40;;;;;;;17.34;100.00;99064.59;5003646;28;20563;-86
2022/09/29 09:26:06;;;;;;;6.45;0.75;;;;;;;17.39;100.00;99064.72;4986434;28;20050;-88
2022/09/29 09:29:16;;;;;;;6.20;0.70;;;;;;;17.36;100.00;99067.00;4985335;28;20050;-86
2022/09/29 09:32:04;;;;;;;5.95;0.68;;;;;;;17.41;100.00;99062.69;4980778;28;20793;-87
2022/09/29 09:34:50;;;;;;;7.53;0.70;;;;;;;17.39;100.00;99056.84;5006664;28;20045;-86
2022/09/29 09:37:19;;;;;;;;;;;;;;;17.31;100.00;99048.44;5008758;28;20490;-90
2022/09/29 09:39:57;;;;;;;3.78;0.77;;;;;;;17.38;100.00;99046.53;5007830;28;19984;-87
2022/09/29 09:42:28;;;;;;;1.90;0.50;;;;;;;17.42;100.00;99045.84;4997650;28;20044;-88
2022/09/29 09:44:59;;;;;;;6.75;0.68;;;;;;;17.54;100.00;99051.94;4996909;28;20117;-88
2022/09/29 09:47:55;;;;;;;3.90;0.38;;;;;;;17.77;100.00;99053.09;5000035;28;20029;-87
2022/09/29 09:50:32;;;;;;;;;;;;;;;17.89;100.00;99038.13;5003565;28;20481;-87
2022/09/29 09:53:04;;;;;;;4.03;0.65;;;;;;;18.09;100.00;99040.44;5007970;28;19928;-85
2022/09/29 09:55:35;;;;;;;7.35;0.38;;;;;;;18.44;100.00;99043.06;5000421;28;20030;-85
2022/09/29 09:58:44;;;;;;;3.17;0.20;;;;;;;18.78;100.00;99046.75;5008692;28;20054;-88
2022/09/29 10:01:11;;;;;;;6.60;0.30;;;;;;;19.15;100.00;99044.59;5007911;28;20037;-87
2022/09/29 10:03:40;;;;;;;6.07;0.82;;;;;;;19.29;100.00;99045.94;5010616;28;20034;-88
2022/09/29 10:06:08;;;;;;;3.38;0.28;;;;;;;19.42;100.00;99045.63;5001384;28;20414;-86
2022/09/29 10:08:38;;;;;;;6.63;0.43;;;;;;;19.45;100.00;99028.50;5001476;28;20125;-88
2022/09/29 10:11:29;;;;;;;4.28;0.32;;;;;;;19.42;100.00;99039.56;5000794;28;20022;-87
2022/09/29 10:14:03;;;;;;;5.50;0.20;;;;;;;19.40;100.00;99039.00;4990899;28;20037;-86
2022/09/29 10:16:41;;;;;;;4.35;0.40;;;;;;;19.31;100.00;99048.34;5007046;28;20044;-87
2022/09/29 10:19:09;;;;;;;3.47;0.30;;;;;;;19.29;100.00;99045.13;4996299;28;20034;-89
2022/09/29 10:21:39;;;;;;;2.78;0.30;;;;;;;19.29;100.00;99056.50;4999399;28;20044;-86
2022/09/29 10:24:21;;;;;;;5.72;0.47;;;;;;;19.23;100.00;99046.88;4990898;28;20049;-88
2022/09/29 10:26:55;;;;;;;5.07;0.40;;;;;;;19.31;100.00;99041.22;5003339;28;20036;-90
2022/09/29 10:29:22;;;;;;;5.15;0.40;;;;;;;19.39;100.00;99047.94;4997365;28;20057;-88
2022/09/29 10:32:13;;;;;;;6.13;0.60;;;;;;;19.43;100.00;99049.88;5000380;28;20084;-89
2022/09/29 10:34:53;;;;;;;4.20;0.20;;;;;;;19.41;100.00;99046.69;5009108;28;20557;-89
2022/09/29 10:37:23;;;;;;;5.38;0.40;;;;;;;19.40;100.00;99045.06;4993320;28;20094;-87
2022/09/29 10:39:50;;;;;;;2.58;0.20;;;;;;;19.40;100.00;99045.06;5005826;28;20056;-88
2022/09/29 10:42:34;;;;;;;5.45;0.60;;;;;;;19.35;100.00;99052.91;4992664;28;20046;-87
2022/09/29 10:45:15;;;;;;;6.75;0.30;;;;;;;19.27;100.00;99049.84;4991401;28;20026;-87
2022/09/29 10:47:48;;;;;;;3.15;0.30;;;;;;;19.32;100.00;99053.41;4990003;28;20053;-89
2022/09/29 10:50:26;;;;;;;3.17;0.75;;;;;;;19.35;100.00;99045.00;4989391;28;20072;-88
2022/09/29 10:53:05;;;;;;;10.68;0.30;;;;;;;19.18;100.00;99033.56;5001784;28;20084;-86
2022/09/29 10:55:33;;;;;;;5.00;0.73;;;;;;;18.97;100.00;99047.38;5010780;28;20113;-89
2022/09/29 10:58:36;;;;;;;4.57;0.30;;;;;;;18.85;100.00;99050.88;5002351;28;20037;-88
2022/09/29 11:01:16;;;;;;;1.75;0.30;;;;;;;18.77;100.00;99048.59;4913409;29;20400;-91
2022/09/29 11:04:18;;;;;;;4.03;0.20;;;;;;;18.69;100.00;99062.13;4905234;29;20708;-88
2022/09/29 11:06:44;;;;;;;5.20;0.50;;;;;;;18.57;100.00;99063.94;4903390;29;20114;-88
2022/09/29 11:09:32;;;;;;;7.78;0.40;;;;;;;18.54;100.00;99065.19;4913543;29;20491;-90
2022/09/29 11:12:00;;;;;;;4.22;0.43;;;;;;;18.60;100.00;99066.16;4907344;29;20044;-86
2022/09/29 11:14:30;;;;;;;4.25;0.47;;;;;;;18.60;100.00;99071.44;4918225;29;21339;-88
2022/09/29 11:16:59;;;;;;;9.98;0.88;;;;;;;18.49;100.00;99078.28;4911643;29;20028;-89
2022/09/29 11:19:26;;;;;;;6.10;0.82;;;;;;;18.37;100.00;99081.97;4895993;29;20047;-85
2022/09/29 11:22:15;;;;;;;7.05;1.48;;;;;;;18.06;100.00;99078.56;4910794;29;20044;-88
2022/09/29 11:25:21;;;;;;;8.80;0.40;;;;;;;17.68;100.00;99084.22;4902369;29;20034;-87
2022/09/29 11:28:24;;;;;;;6.28;0.50;;;;;;;17.54;100.00;99077.47;4868471;29;20060;-84
2022/09/29 11:31:33;;;;;;;6.38;0.35;;;;;;;17.50;100.00;99092.91;4856884;29;20038;-87
2022/09/29 11:34:30;;;;;;;9.73;0.95;;;;;;;17.60;100.00;99089.75;4857257;29;20069;-86
2022/09/29 11:37:12;;;;;;;3.88;0.30;;;;;;;17.62;100.00;99092.16;4914155;29;20043;-84
2022/09/29 11:39:50;;;;;;;4.40;0.70;;;;;;;17.53;100.00;99103.00;4948132;29;20043;-83
2022/09/29 11:42:42;;;;;;;3.40;0.47;;;;;;;17.51;100.00;99110.31;4931992;28;20102;-85
2022/09/29 11:45:17;;;;;;;6.00;0.30;;;;;;;17.57;100.00;99090.19;4936579;28;20074;-85
2022/09/29 11:47:57;;;;;;;3.97;0.20;;;;;;;17.63;100.00;99099.03;4935162;28;20035;-84
2022/09/29 11:51:00;;;;;;;7.32;0.55;;;;;;;17.70;100.00;99090.06;4926959;29;20163;-86
2022/09/29 11:54:03;;;;;;;7.65;0.68;;;;;;;17.73;100.00;99088.81;4915649;28;20046;-86
2022/09/29 11:56:34;;;;;;;10.77;0.70;;;;;;;17.84;100.00;99093.31;4928818;29;20059;-87
2022/09/29 11:59:14;;;;;;;7.47;0.40;;;;;;;17.97;100.00;99095.75;4951925;28;20082;-86
2022/09/29 12:01:45;;;;;;;6.88;0.52;;;;;;;18.01;100.00;99094.25;4947059;28;20594;-87